createdAt,value
2017-12-05T00:01:31.491Z,18.30
2017-12-05T00:03:59.831Z,18.30
2017-12-05T00:06:28.097Z,18.30
2017-12-05T00:08:57.178Z,18.30
2017-12-05T00:11:26.438Z,18.30
2017-12-05T00:13:54.813Z,18.30
2017-12-05T00:16:23.112Z,18.30
2017-12-05T00:18:51.462Z,18.30
2017-12-05T00:21:19.773Z,18.30
2017-12-05T00:23:48.059Z,18.30
2017-12-05T00:26:17.158Z,18.30
2017-12-05T00:28:45.414Z,18.20
2017-12-05T00:31:15.510Z,18.20
2017-12-05T00:33:43.794Z,18.30
2017-12-05T00:36:12.167Z,18.20
2017-12-05T00:38:40.421Z,18.20
2017-12-05T00:41:08.746Z,18.20
2017-12-05T00:43:37.039Z,18.20
2017-12-05T00:46:06.096Z,18.20
2017-12-05T00:48:34.331Z,18.20
2017-12-05T00:51:02.569Z,18.20
2017-12-05T00:53:30.835Z,18.20
2017-12-05T00:55:59.105Z,18.20
2017-12-05T00:58:27.391Z,18.20
2017-12-05T01:00:55.683Z,18.20
2017-12-05T01:03:24.831Z,18.20
2017-12-05T01:05:53.283Z,18.20
2017-12-05T01:08:21.523Z,18.10
2017-12-05T01:10:49.779Z,18.10
2017-12-05T01:13:18.066Z,18.20
2017-12-05T01:15:46.293Z,18.20
2017-12-05T01:18:14.605Z,18.20
2017-12-05T01:20:42.865Z,18.20
2017-12-05T01:23:11.328Z,18.10
2017-12-05T01:25:39.591Z,18.20
2017-12-05T01:28:07.826Z,18.20
2017-12-05T01:30:36.107Z,18.20
2017-12-05T01:33:05.144Z,18.10
2017-12-05T01:35:33.415Z,18.10
2017-12-05T01:38:01.796Z,18.10
2017-12-05T01:40:30.047Z,18.10
2017-12-05T01:42:58.293Z,18.10
2017-12-05T01:45:26.638Z,18.10
2017-12-05T01:47:54.938Z,18.10
2017-12-05T01:50:23.251Z,18.10
2017-12-05T01:52:51.561Z,18.10
2017-12-05T01:55:19.859Z,18.20
2017-12-05T01:57:48.214Z,18.20
2017-12-05T02:00:16.484Z,18.10
2017-12-05T02:02:44.856Z,18.20
2017-12-05T02:05:13.270Z,18.20
2017-12-05T02:07:41.557Z,18.10
2017-12-05T02:10:09.901Z,18.20
2017-12-05T02:12:38.895Z,18.20
2017-12-05T02:15:07.275Z,18.20
2017-12-05T02:17:35.679Z,18.20
2017-12-05T02:20:03.937Z,18.20
2017-12-05T02:22:32.200Z,18.20
2017-12-05T02:25:00.575Z,18.20
2017-12-05T02:27:28.894Z,18.20
2017-12-05T02:29:58.031Z,18.20
2017-12-05T02:32:28.261Z,18.10
2017-12-05T02:34:56.537Z,18.20
2017-12-05T02:37:24.816Z,18.20
2017-12-05T02:39:53.078Z,18.20
2017-12-05T02:42:21.358Z,18.20
2017-12-05T02:44:49.647Z,18.20
2017-12-05T02:47:17.958Z,18.20
2017-12-05T02:49:46.244Z,18.20
2017-12-05T02:52:15.293Z,18.20
2017-12-05T02:54:44.639Z,18.20
2017-12-05T02:57:13.685Z,18.20
2017-12-05T02:59:42.082Z,18.20
2017-12-05T03:02:10.439Z,18.20
2017-12-05T03:04:38.705Z,18.20
2017-12-05T03:07:06.980Z,18.20
2017-12-05T03:09:35.265Z,18.20
2017-12-05T03:12:03.548Z,18.20
2017-12-05T03:14:31.836Z,18.20
2017-12-05T03:17:00.099Z,18.20
2017-12-05T03:19:28.371Z,18.20
2017-12-05T03:21:56.662Z,18.20
2017-12-05T03:24:24.988Z,18.20
2017-12-05T03:26:53.342Z,18.20
2017-12-05T03:29:22.484Z,18.20
2017-12-05T03:31:51.405Z,18.10
2017-12-05T03:34:19.745Z,18.20
2017-12-05T03:36:48.302Z,18.20
2017-12-05T03:39:16.631Z,18.20
2017-12-05T03:41:44.935Z,18.20
2017-12-05T03:44:14.049Z,18.20
2017-12-05T03:46:42.302Z,18.10
2017-12-05T03:49:10.602Z,18.10
2017-12-05T03:51:38.968Z,18.20
2017-12-05T03:54:08.075Z,18.10
2017-12-05T03:56:36.370Z,18.10
2017-12-05T03:59:04.650Z,18.20
2017-12-05T04:01:32.938Z,18.20
2017-12-05T04:04:01.295Z,18.20
2017-12-05T04:06:29.569Z,18.20
2017-12-05T04:08:57.843Z,18.20
2017-12-05T04:11:26.120Z,18.20
2017-12-05T04:13:54.412Z,18.20
2017-12-05T04:16:22.776Z,18.20
2017-12-05T04:18:51.064Z,18.20
2017-12-05T04:21:19.335Z,18.20
2017-12-05T04:23:47.679Z,18.20
2017-12-05T04:26:16.750Z,18.20
2017-12-05T04:28:45.834Z,18.20
2017-12-05T04:31:14.207Z,18.20
2017-12-05T04:33:42.472Z,18.20
2017-12-05T04:36:10.772Z,18.20
2017-12-05T04:38:39.119Z,18.20
2017-12-05T04:41:07.394Z,18.20
2017-12-05T04:43:35.687Z,18.20
2017-12-05T04:46:03.971Z,18.20
2017-12-05T04:48:32.378Z,18.20
2017-12-05T04:51:01.438Z,18.20
2017-12-05T04:53:29.907Z,18.20
2017-12-05T04:55:58.162Z,18.20
2017-12-05T04:58:26.537Z,18.20
2017-12-05T05:00:55.038Z,18.20
2017-12-05T05:03:23.307Z,18.30
2017-12-05T05:05:51.566Z,18.40
2017-12-05T05:08:19.871Z,18.40
2017-12-05T05:10:48.191Z,18.40
2017-12-05T05:13:16.459Z,18.50
2017-12-05T05:15:45.563Z,18.60
2017-12-05T05:18:13.829Z,18.60
2017-12-05T05:20:42.882Z,18.60
2017-12-05T05:23:11.229Z,18.60
2017-12-05T05:25:39.601Z,18.60
2017-12-05T05:28:07.890Z,18.60
2017-12-05T05:30:36.163Z,18.70
2017-12-05T05:33:04.481Z,18.70
2017-12-05T05:35:32.859Z,18.70
2017-12-05T05:38:01.123Z,18.70
2017-12-05T05:40:29.365Z,18.70
2017-12-05T05:42:57.664Z,18.70
2017-12-05T05:45:25.923Z,18.70
2017-12-05T05:47:54.214Z,18.70
2017-12-05T05:50:22.591Z,18.70
2017-12-05T05:52:51.010Z,18.70
2017-12-05T05:55:20.086Z,18.70
2017-12-05T05:57:49.366Z,18.70
2017-12-05T06:00:17.971Z,18.70
2017-12-05T06:02:46.246Z,18.70
2017-12-05T06:05:14.587Z,18.70
2017-12-05T06:07:42.990Z,18.70
2017-12-05T06:10:11.331Z,18.70
2017-12-05T06:12:39.622Z,18.80
2017-12-05T06:15:07.923Z,18.80
2017-12-05T06:17:37.023Z,18.80
2017-12-05T06:20:05.347Z,18.80
2017-12-05T06:22:33.765Z,18.80
2017-12-05T06:25:02.087Z,18.80
2017-12-05T06:27:30.410Z,18.80
2017-12-05T06:29:58.739Z,18.90
2017-12-05T06:32:27.069Z,18.90
2017-12-05T06:34:55.376Z,18.90
2017-12-05T06:37:23.699Z,18.90
2017-12-05T06:39:52.004Z,18.90
2017-12-05T06:42:20.428Z,18.90
2017-12-05T06:44:49.631Z,18.90
2017-12-05T06:47:17.973Z,18.90
2017-12-05T06:49:46.292Z,18.90
2017-12-05T06:52:14.554Z,18.90
2017-12-05T06:54:42.895Z,18.90
2017-12-05T06:57:11.426Z,18.90
2017-12-05T06:59:39.787Z,19.00
2017-12-05T07:02:08.071Z,19.00
2017-12-05T07:04:36.371Z,19.00
2017-12-05T07:07:04.715Z,19.00
2017-12-05T07:09:33.008Z,19.00
2017-12-05T07:12:01.547Z,19.00
2017-12-05T07:14:30.670Z,19.00
2017-12-05T07:16:59.003Z,19.00
2017-12-05T07:19:27.267Z,19.00
2017-12-05T07:21:55.617Z,19.00
2017-12-05T07:24:23.956Z,19.00
2017-12-05T07:26:52.303Z,19.10
2017-12-05T07:29:20.569Z,19.00
2017-12-05T07:31:49.020Z,19.10
2017-12-05T07:34:17.280Z,19.10
2017-12-05T07:36:46.375Z,19.00
2017-12-05T07:39:14.657Z,19.00
2017-12-05T07:41:42.892Z,19.00
2017-12-05T07:44:11.202Z,19.00
2017-12-05T07:46:39.451Z,19.00
2017-12-05T07:49:08.518Z,19.00
2017-12-05T07:51:36.851Z,19.00
2017-12-05T07:54:06.179Z,19.00
2017-12-05T07:56:34.458Z,19.00
2017-12-05T07:59:02.761Z,19.00
2017-12-05T08:01:31.120Z,19.00
2017-12-05T08:03:59.463Z,19.00
2017-12-05T08:06:27.778Z,19.00
2017-12-05T08:08:56.100Z,19.00
2017-12-05T08:11:24.414Z,19.00
2017-12-05T08:13:52.728Z,19.00
2017-12-05T08:16:22.039Z,19.00
2017-12-05T08:18:51.356Z,19.00
2017-12-05T08:21:19.643Z,19.00
2017-12-05T08:23:47.920Z,19.00
2017-12-05T08:26:16.285Z,19.10
2017-12-05T08:28:44.651Z,19.00
2017-12-05T08:31:12.937Z,19.00
2017-12-05T08:33:41.417Z,19.10
2017-12-05T08:36:10.219Z,19.10
2017-12-05T08:38:38.558Z,19.10
2017-12-05T08:41:07.671Z,19.10
2017-12-05T08:43:35.970Z,19.10
2017-12-05T08:46:04.375Z,19.10
2017-12-05T08:48:32.656Z,19.10
2017-12-05T08:51:01.015Z,19.10
2017-12-05T08:53:29.605Z,19.10
2017-12-05T08:55:57.935Z,19.10
2017-12-05T08:58:26.335Z,19.10
2017-12-05T09:00:55.560Z,19.10
2017-12-05T09:03:24.130Z,19.10
2017-12-05T09:05:52.415Z,19.10
2017-12-05T09:08:20.695Z,19.10
2017-12-05T09:10:48.975Z,19.10
2017-12-05T09:13:17.333Z,19.10
2017-12-05T09:15:45.598Z,19.20
2017-12-05T09:18:13.867Z,19.20
2017-12-05T09:20:43.332Z,19.10
2017-12-05T09:23:12.399Z,19.20
2017-12-05T09:25:40.837Z,19.20
2017-12-05T09:28:09.156Z,19.20
2017-12-05T09:30:37.523Z,19.20
2017-12-05T09:33:09.608Z,19.20
2017-12-05T09:35:37.908Z,19.20
2017-12-05T09:38:06.959Z,19.20
2017-12-05T09:40:35.992Z,19.20
2017-12-05T09:43:05.264Z,19.20
2017-12-05T09:45:33.575Z,19.20
2017-12-05T09:48:01.918Z,19.10
2017-12-05T09:50:31.709Z,19.10
2017-12-05T09:52:59.980Z,19.20
2017-12-05T09:55:28.256Z,19.20
2017-12-05T09:57:56.546Z,19.20
2017-12-05T10:00:24.914Z,19.20
2017-12-05T10:02:53.256Z,19.10
2017-12-05T10:05:21.684Z,19.10
2017-12-05T10:07:50.046Z,19.10
2017-12-05T10:10:19.253Z,19.20
2017-12-05T10:12:47.607Z,19.10
2017-12-05T10:15:15.951Z,19.20
2017-12-05T10:17:45.190Z,19.20
2017-12-05T10:20:13.508Z,19.10
2017-12-05T10:22:42.669Z,19.10
2017-12-05T10:25:11.000Z,19.20
2017-12-05T10:27:41.471Z,19.10
2017-12-05T10:30:09.942Z,19.20
2017-12-05T10:32:38.383Z,19.10
2017-12-05T10:35:19.339Z,19.20
2017-12-05T10:37:47.696Z,19.10
2017-12-05T10:40:16.046Z,19.20
2017-12-05T10:42:44.403Z,19.10
2017-12-05T10:45:12.743Z,19.20
2017-12-05T10:47:42.736Z,19.10
2017-12-05T10:50:12.682Z,19.10
2017-12-05T10:52:42.044Z,19.10
2017-12-05T10:55:10.332Z,19.20
2017-12-05T10:57:38.592Z,19.20
2017-12-05T11:00:07.047Z,19.20
2017-12-05T11:02:35.487Z,19.20
2017-12-05T11:05:04.825Z,19.20
2017-12-05T11:07:33.100Z,19.20
2017-12-05T11:10:01.454Z,19.20
2017-12-05T11:12:30.671Z,19.20
2017-12-05T11:14:59.021Z,19.20
2017-12-05T11:17:28.178Z,19.20
2017-12-05T11:19:56.463Z,19.20
2017-12-05T11:22:24.842Z,19.20
2017-12-05T11:24:53.141Z,19.20
2017-12-05T11:27:22.240Z,19.20
2017-12-05T11:29:51.344Z,19.20
2017-12-05T11:32:19.876Z,19.20
2017-12-05T11:34:48.210Z,19.20
2017-12-05T11:37:16.529Z,19.10
2017-12-05T11:39:44.807Z,19.20
2017-12-05T11:42:13.627Z,19.20
2017-12-05T11:44:42.688Z,19.20
2017-12-05T11:47:10.970Z,19.20
2017-12-05T11:49:39.235Z,19.20
2017-12-05T11:52:07.519Z,19.20
2017-12-05T11:54:35.918Z,19.20
2017-12-05T11:57:04.975Z,19.10
2017-12-05T11:59:33.714Z,19.10
2017-12-05T12:02:02.983Z,19.10
2017-12-05T12:04:31.267Z,19.10
2017-12-05T12:06:59.643Z,19.10
2017-12-05T12:09:27.931Z,19.10
2017-12-05T12:11:56.875Z,19.10
2017-12-05T12:14:25.996Z,19.10
2017-12-05T12:16:55.922Z,19.10
2017-12-05T12:19:25.075Z,19.20
2017-12-05T12:21:53.395Z,19.10
2017-12-05T12:24:21.683Z,19.10
2017-12-05T12:26:50.780Z,19.10
2017-12-05T12:29:19.823Z,19.10
2017-12-05T12:31:48.156Z,19.10
2017-12-05T12:34:17.292Z,19.10
2017-12-05T12:36:45.539Z,19.10
2017-12-05T12:39:13.839Z,19.10
2017-12-05T12:41:42.911Z,19.10
2017-12-05T12:44:11.285Z,19.10
2017-12-05T12:46:39.705Z,19.10
2017-12-05T12:49:08.079Z,19.10
2017-12-05T12:51:36.384Z,19.10
2017-12-05T12:54:04.747Z,19.10
2017-12-05T12:56:33.050Z,19.10
2017-12-05T12:59:02.103Z,19.20
2017-12-05T13:01:30.369Z,19.10
2017-12-05T13:03:58.705Z,19.10
2017-12-05T13:06:27.061Z,19.20
2017-12-05T13:08:55.399Z,19.10
2017-12-05T13:11:23.741Z,19.20
2017-12-05T13:13:52.780Z,19.10
2017-12-05T13:16:21.215Z,19.10
2017-12-05T13:18:49.521Z,19.10
2017-12-05T13:21:18.011Z,19.10
2017-12-05T13:23:46.290Z,19.00
2017-12-05T13:26:14.656Z,19.10
2017-12-05T13:28:42.954Z,19.00
2017-12-05T13:31:11.203Z,19.10
2017-12-05T13:33:39.450Z,19.10
2017-12-05T13:36:09.035Z,19.10
2017-12-05T13:38:38.096Z,19.10
2017-12-05T13:41:08.026Z,19.10
2017-12-05T13:43:38.062Z,19.00
2017-12-05T13:46:06.336Z,19.10
2017-12-05T13:48:35.795Z,19.10
2017-12-05T13:51:04.160Z,19.10
2017-12-05T13:53:32.529Z,19.10
2017-12-05T13:56:00.794Z,19.10
2017-12-05T13:58:29.039Z,19.10
2017-12-05T14:00:57.313Z,19.10
2017-12-05T14:03:26.358Z,19.10
2017-12-05T14:05:54.771Z,19.10
2017-12-05T14:08:23.142Z,19.10
2017-12-05T14:10:52.196Z,19.10
2017-12-05T14:13:20.807Z,19.10
2017-12-05T14:15:49.074Z,19.10
2017-12-05T14:18:18.317Z,19.00
2017-12-05T14:20:46.593Z,19.00
2017-12-05T14:23:17.420Z,19.10
2017-12-05T14:25:45.778Z,19.10
2017-12-05T14:28:16.881Z,19.10
2017-12-05T14:30:45.815Z,19.10
2017-12-05T14:33:15.091Z,19.00
2017-12-05T14:35:44.335Z,19.00
2017-12-05T14:38:14.326Z,19.10
2017-12-05T14:40:42.583Z,19.10
2017-12-05T14:43:11.216Z,19.20
2017-12-05T14:45:40.658Z,19.20
2017-12-05T14:48:08.928Z,19.10
2017-12-05T14:50:38.046Z,19.10
2017-12-05T14:53:06.359Z,19.10
2017-12-05T14:55:36.006Z,19.20
2017-12-05T14:58:04.400Z,19.20
2017-12-05T15:00:32.844Z,19.20
2017-12-05T15:03:01.497Z,19.30
2017-12-05T15:05:30.087Z,19.30
2017-12-05T15:07:58.466Z,19.30
2017-12-05T15:10:28.583Z,19.60
2017-12-05T15:12:59.397Z,19.50
2017-12-05T15:15:28.482Z,19.50
2017-12-05T15:17:57.598Z,19.50
2017-12-05T15:20:26.054Z,19.50
2017-12-05T15:22:54.597Z,19.50
2017-12-05T15:25:25.090Z,19.40
2017-12-05T15:27:54.341Z,19.40
2017-12-05T15:30:23.411Z,19.40
2017-12-05T15:32:53.498Z,19.30
2017-12-05T15:35:22.723Z,19.30
2017-12-05T15:37:51.012Z,19.30
2017-12-05T15:40:20.290Z,19.30
2017-12-05T15:42:49.413Z,19.30
2017-12-05T15:45:17.699Z,19.30
2017-12-05T15:47:46.006Z,19.30
2017-12-05T15:50:14.392Z,19.30
2017-12-05T15:52:42.800Z,19.30
2017-12-05T15:55:11.118Z,19.20
2017-12-05T15:57:39.428Z,19.20
2017-12-05T16:00:12.638Z,19.20
2017-12-05T16:02:40.978Z,19.20
2017-12-05T16:05:09.379Z,19.20
2017-12-05T16:07:38.496Z,19.20
2017-12-05T16:10:06.845Z,19.20
2017-12-05T16:12:35.889Z,19.20
2017-12-05T16:15:04.199Z,19.20
2017-12-05T16:17:33.584Z,19.20
2017-12-05T16:20:03.338Z,19.20
2017-12-05T16:22:32.711Z,19.20
2017-12-05T16:25:02.633Z,19.20
2017-12-05T16:27:31.084Z,19.20
2017-12-05T16:30:01.166Z,19.20
2017-12-05T16:32:29.456Z,19.20
2017-12-05T16:34:58.900Z,19.20
2017-12-05T16:37:27.203Z,19.20
2017-12-05T16:39:56.221Z,19.20
2017-12-05T16:42:26.483Z,19.10
2017-12-05T16:44:54.856Z,19.10
2017-12-05T16:47:24.089Z,19.20
2017-12-05T16:49:53.350Z,19.20
2017-12-05T16:52:23.598Z,19.20
2017-12-05T16:54:53.921Z,19.20
2017-12-05T16:57:23.001Z,19.20
2017-12-05T16:59:51.420Z,19.20
2017-12-05T17:02:19.784Z,19.20
2017-12-05T17:04:49.805Z,19.20
2017-12-05T17:07:18.167Z,19.20
2017-12-05T17:09:46.623Z,19.20
2017-12-05T17:12:14.912Z,19.20
2017-12-05T17:14:43.300Z,19.20
2017-12-05T17:17:11.583Z,19.20
2017-12-05T17:19:40.698Z,19.20
2017-12-05T17:22:09.744Z,19.20
2017-12-05T17:24:38.074Z,19.20
2017-12-05T17:27:06.382Z,19.20
2017-12-05T17:29:34.647Z,19.20
2017-12-05T17:32:03.011Z,19.10
2017-12-05T17:34:47.395Z,19.20
2017-12-05T17:37:15.766Z,19.20
2017-12-05T17:39:44.048Z,19.10
2017-12-05T17:42:12.359Z,19.10
2017-12-05T17:44:40.710Z,19.10
2017-12-05T17:47:09.103Z,19.20
2017-12-05T17:49:37.394Z,19.10
2017-12-05T17:52:06.444Z,19.10
2017-12-05T17:54:34.787Z,19.10
2017-12-05T17:57:04.925Z,19.10
2017-12-05T17:59:33.313Z,19.20
2017-12-05T18:02:01.600Z,19.20
2017-12-05T18:04:29.855Z,19.20
2017-12-05T18:06:58.105Z,19.20
2017-12-05T18:09:26.480Z,19.20
2017-12-05T18:11:54.716Z,19.20
2017-12-05T18:14:23.112Z,19.20
2017-12-05T18:16:51.412Z,19.20
2017-12-05T18:19:19.813Z,19.20
2017-12-05T18:21:48.087Z,19.20
2017-12-05T18:24:16.403Z,19.20
2017-12-05T18:26:44.644Z,19.20
2017-12-05T18:29:12.894Z,19.20
2017-12-05T18:31:41.243Z,19.20
2017-12-05T18:34:10.311Z,19.20
2017-12-05T18:36:38.554Z,19.20
2017-12-05T18:39:06.815Z,19.20
2017-12-05T18:41:35.179Z,19.20
2017-12-05T18:44:04.180Z,19.20
2017-12-05T18:46:32.514Z,19.20
2017-12-05T18:49:00.807Z,19.20
2017-12-05T18:51:29.693Z,19.20
2017-12-05T18:53:57.936Z,19.20
2017-12-05T18:56:26.247Z,19.20
2017-12-05T18:58:54.538Z,19.10
2017-12-05T19:01:22.907Z,19.10
2017-12-05T19:03:52.032Z,19.20
2017-12-05T19:06:20.323Z,19.10
2017-12-05T19:08:48.729Z,19.10
2017-12-05T19:11:16.995Z,19.20
2017-12-05T19:13:45.798Z,19.20
2017-12-05T19:16:14.141Z,19.20
2017-12-05T19:18:42.611Z,19.10
2017-12-05T19:21:10.924Z,19.20
2017-12-05T19:23:39.192Z,19.10
2017-12-05T19:26:07.532Z,19.20
2017-12-05T19:28:37.229Z,19.10
2017-12-05T19:31:05.661Z,19.20
2017-12-05T19:33:34.004Z,19.20
2017-12-05T19:36:02.334Z,19.20
2017-12-05T19:38:30.844Z,19.20
2017-12-05T19:40:59.199Z,19.10
2017-12-05T19:43:28.256Z,19.10
2017-12-05T19:45:56.671Z,19.10
2017-12-05T19:48:25.759Z,19.10
2017-12-05T19:50:54.165Z,19.10
2017-12-05T19:53:22.482Z,19.10
2017-12-05T19:55:51.553Z,19.10
2017-12-05T19:58:19.858Z,19.10
2017-12-05T20:00:48.423Z,19.10
2017-12-05T20:03:16.768Z,19.10
2017-12-05T20:05:45.307Z,19.10
2017-12-05T20:08:13.652Z,19.10
2017-12-05T20:10:41.961Z,19.10
2017-12-05T20:13:10.209Z,19.10
2017-12-05T20:15:38.659Z,19.10
2017-12-05T20:18:07.018Z,19.20
2017-12-05T20:20:36.671Z,19.20
2017-12-05T20:23:05.714Z,19.20
2017-12-05T20:25:34.783Z,19.20
2017-12-05T20:28:03.136Z,19.20
2017-12-05T20:30:31.689Z,19.20
2017-12-05T20:33:00.069Z,19.20
2017-12-05T20:35:28.516Z,19.20
2017-12-05T20:37:56.804Z,19.20
2017-12-05T20:40:25.373Z,19.20
2017-12-05T20:42:54.204Z,19.20
2017-12-05T20:45:22.589Z,19.20
2017-12-05T20:47:51.080Z,19.20
2017-12-05T20:50:19.458Z,19.20
2017-12-05T20:52:47.794Z,19.10
2017-12-05T20:55:17.011Z,19.20
2017-12-05T20:57:45.448Z,19.20
2017-12-05T21:00:13.792Z,19.20
2017-12-05T21:02:42.692Z,19.20
2017-12-05T21:05:11.961Z,19.20
2017-12-05T21:07:40.272Z,19.20
2017-12-05T21:10:08.601Z,19.20
2017-12-05T21:12:36.934Z,19.20
2017-12-05T21:15:05.275Z,19.20
2017-12-05T21:17:35.147Z,19.30
2017-12-05T21:20:04.211Z,19.30
2017-12-05T21:22:32.523Z,19.20
2017-12-05T21:25:00.899Z,19.20
2017-12-05T21:27:30.056Z,19.20
2017-12-05T21:29:58.454Z,19.20
2017-12-05T21:32:29.550Z,19.30
2017-12-05T21:34:58.836Z,19.30
2017-12-05T21:37:27.331Z,19.30
2017-12-05T21:39:55.683Z,19.30
2017-12-05T21:42:29.867Z,19.30
2017-12-05T21:44:59.225Z,19.30
2017-12-05T21:47:31.410Z,19.30
2017-12-05T21:50:04.924Z,19.30
